Richlandtown, Pennsylvania
Current Conditions -  °F | °C
As of 2:35 PM on Thursday 18 Dec 2014 (Local Time) from KUKT Reporting Station
Overcast Overcast  
Wind Chill: 30°   Ceiling: 3700
Heat Index: 37°   Visibility: 10mi
Dew Point: 25°   Wind: 10mph
Humidity: 60%   Direction: 290°WNW
Pressure: 30"   Gusts: NA
Location:  40.47°N, 75.32°W
Report Text: KUKT 181935Z AUTO 29009KT 250V310 10SM OVC037 03/M04 A3000 RMK AO1
Loading
Personal Weather Stations






























Interactive Weather Map New forecast layout! Learn more

10-Day Weather Forecast

Advertisements
Track Severe Weather on mobile